Time;durP1;ratioP1;P1;durP2;ratioP2;P2;SDS_P1;SDS_P2;PMS_P1;PMS_P2;Temp;Humidity;BMP_temperature;BMP_pressure;BME280_temperature;BME280_humidity;BME280_pressure;Samples;Min_cycle;Max_cycle;Signal;HPM_P1;HPM_P2
2022/03/08 00:01:45;;;;;;;2.97;1.50;;;;;;;17.45;22.26;102381.13;5032271;28;20034;-74
2022/03/08 00:04:12;;;;;;;2.95;1.17;;;;;;;17.44;20.59;102384.06;5015984;28;20452;-73
2022/03/08 00:06:38;;;;;;;4.85;1.35;;;;;;;17.25;23.23;102377.63;5032086;28;20360;-74
2022/03/08 00:09:24;;;;;;;3.08;1.30;;;;;;;16.95;24.24;102377.31;5015579;28;20040;-73
2022/03/08 00:11:50;;;;;;;2.90;1.17;;;;;;;16.97;23.61;102380.63;4945838;29;20465;-73
2022/03/08 00:14:17;;;;;;;3.60;1.30;;;;;;;16.97;23.22;102381.47;4940725;29;20438;-74
2022/03/08 00:16:44;;;;;;;4.18;1.50;;;;;;;17.08;23.30;102372.69;4940018;29;20442;-73
2022/03/08 00:19:10;;;;;;;4.10;1.58;;;;;;;17.04;24.21;102366.03;4940314;29;20415;-74
2022/03/08 00:21:36;;;;;;;3.80;1.35;;;;;;;16.88;25.26;102364.63;4948486;29;20035;-74
2022/03/08 00:24:03;;;;;;;2.40;1.48;;;;;;;16.60;26.66;102362.13;4932913;29;20047;-74
2022/03/08 00:26:29;;;;;;;3.25;1.70;;;;;;;16.39;28.83;102366.94;4936999;29;20074;-73
2022/03/08 00:28:56;;;;;;;3.80;1.40;;;;;;;16.20;28.89;102371.25;4937777;29;20435;-74
2022/03/08 00:31:22;;;;;;;3.75;1.40;;;;;;;16.15;29.06;102368.34;4955459;29;20413;-73
2022/03/08 00:33:48;;;;;;;3.28;1.00;;;;;;;16.05;28.16;102364.19;4946585;29;20449;-73
2022/03/08 00:36:14;;;;;;;2.97;1.15;;;;;;;15.99;28.49;102372.25;4949806;29;20044;-74
2022/03/08 00:38:40;;;;;;;3.78;1.50;;;;;;;15.72;30.80;102369.50;4937061;29;20418;-74
2022/03/08 00:41:06;;;;;;;3.58;1.30;;;;;;;15.55;30.06;102368.16;4936909;29;20039;-74
2022/03/08 00:43:33;;;;;;;2.63;1.52;;;;;;;15.50;29.90;102374.16;4936834;29;20039;-73
2022/03/08 00:45:59;;;;;;;3.85;1.60;;;;;;;15.46;30.15;102366.66;4925690;29;20114;-72
2022/03/08 00:48:25;;;;;;;2.97;1.25;;;;;;;15.43;27.64;102381.38;4974255;28;20115;-72
2022/03/08 00:50:51;;;;;;;1.75;1.10;;;;;;;15.51;27.35;102375.81;5015795;28;20444;-72
2022/03/08 00:53:18;;;;;;;2.45;1.10;;;;;;;15.49;29.18;102372.50;5028498;28;20026;-72
2022/03/08 00:55:44;;;;;;;1.85;1.10;;;;;;;15.42;26.66;102371.63;5024358;28;20026;-72
2022/03/08 00:58:10;;;;;;;3.35;1.60;;;;;;;15.54;25.97;102367.31;5012984;28;20030;-72
2022/03/08 01:00:38;;;;;;;3.88;1.42;;;;;;;15.63;26.80;102369.88;5012807;28;20022;-72
2022/03/08 01:03:05;;;;;;;3.35;1.25;;;;;;;15.69;26.01;102371.78;5011420;28;20659;-72
2022/03/08 01:05:32;;;;;;;2.30;1.13;;;;;;;15.50;28.97;102379.56;5008937;28;20030;-72
2022/03/08 01:07:59;;;;;;;2.83;1.30;;;;;;;15.29;31.30;102377.81;5010084;28;20475;-71
2022/03/08 01:10:27;;;;;;;5.57;1.60;;;;;;;15.34;31.47;102371.81;5025227;28;20524;-72
2022/03/08 01:12:54;;;;;;;4.22;1.38;;;;;;;15.30;29.51;102370.53;5014829;28;20060;-72
2022/03/08 01:15:21;;;;;;;4.25;1.38;;;;;;;15.19;31.53;102377.31;5014454;28;20253;-72
2022/03/08 01:17:48;;;;;;;4.05;1.25;;;;;;;15.06;30.23;102377.25;5014646;28;20436;-72
2022/03/08 01:20:15;;;;;;;2.30;1.20;;;;;;;14.87;32.36;102375.25;5014590;28;20036;-72
2022/03/08 01:22:41;;;;;;;3.67;1.50;;;;;;;14.84;32.04;102372.97;5012189;28;20493;-72
2022/03/08 01:25:10;;;;;;;2.22;1.23;;;;;;;14.85;30.99;102374.63;5006736;28;20037;-72
2022/03/08 01:27:36;;;;;;;2.80;1.17;;;;;;;14.85;29.54;102372.75;5006633;28;20037;-72
2022/03/08 01:30:06;;;;;;;3.72;1.38;;;;;;;14.67;32.04;102375.97;5014170;28;20030;-72
2022/03/08 01:32:32;;;;;;;2.53;1.05;;;;;;;14.38;34.10;102376.06;5011955;28;20430;-72
2022/03/08 01:34:59;;;;;;;1.98;1.13;;;;;;;14.37;32.95;102377.94;5014796;28;20349;-72
2022/03/08 01:37:25;;;;;;;3.70;1.50;;;;;;;14.35;30.66;102369.22;5014648;28;20105;-72
2022/03/08 01:39:51;;;;;;;1.83;1.20;;;;;;;14.36;30.09;102365.50;5014988;28;20363;-72
2022/03/08 01:42:21;;;;;;;1.65;1.00;;;;;;;14.25;30.52;102374.94;5026994;28;20036;-72
2022/03/08 01:44:47;;;;;;;2.38;1.30;;;;;;;14.30;29.69;102370.84;5014738;28;20025;-74
2022/03/08 01:47:22;;;;;;;2.58;1.05;;;;;;;14.17;30.01;102367.00;5014855;28;20062;-74
2022/03/08 01:49:49;;;;;;;2.40;1.13;;;;;;;14.11;31.45;102375.00;5013247;28;20400;-73
2022/03/08 01:52:18;;;;;;;2.88;1.10;;;;;;;13.99;32.58;102372.84;5012585;28;20480;-73
2022/03/08 01:54:44;;;;;;;2.80;1.27;;;;;;;13.86;34.45;102375.34;5014271;28;20030;-74
2022/03/08 01:57:12;;;;;;;2.47;1.27;;;;;;;13.79;35.48;102379.84;5012357;28;20447;-74
2022/03/08 01:59:39;;;;;;;4.25;1.77;;;;;;;13.64;35.90;102371.78;5009113;28;20117;-73
2022/03/08 02:02:07;;;;;;;4.40;1.13;;;;;;;13.52;36.61;102377.84;5012411;28;20720;-74
2022/03/08 02:04:33;;;;;;;4.15;1.33;;;;;;;13.34;37.07;102381.78;5010177;28;20026;-72
2022/03/08 02:07:00;;;;;;;1.67;1.27;;;;;;;13.24;37.62;102372.31;5014165;28;20041;-72
2022/03/08 02:09:27;;;;;;;3.50;1.20;;;;;;;13.11;37.88;102375.63;5003961;28;20034;-72
2022/03/08 02:11:53;;;;;;;4.07;1.20;;;;;;;13.03;38.03;102387.28;5011389;28;20137;-72
2022/03/08 02:14:19;;;;;;;3.05;1.38;;;;;;;12.85;38.23;102384.13;5021310;28;20025;-72
2022/03/08 02:16:46;;;;;;;3.08;1.10;;;;;;;12.72;38.23;102387.47;5014398;28;20105;-72
2022/03/08 02:19:14;;;;;;;2.28;1.23;;;;;;;12.58;38.34;102388.25;5009040;28;20034;-72
2022/03/08 02:21:41;;;;;;;3.95;1.45;;;;;;;12.47;38.75;102397.56;5019799;28;20068;-72
2022/03/08 02:24:07;;;;;;;2.20;1.50;;;;;;;12.40;38.78;102388.56;5035392;28;20034;-72
2022/03/08 02:26:34;;;;;;;6.07;1.40;;;;;;;12.26;38.24;102395.53;5013946;28;20022;-72
2022/03/08 02:29:03;;;;;;;4.20;1.30;;;;;;;12.17;38.97;102388.59;5008701;28;20053;-73
2022/03/08 02:31:29;;;;;;;5.05;1.58;;;;;;;12.10;39.67;102392.97;5006051;28;20063;-72
2022/03/08 02:33:56;;;;;;;3.92;1.77;;;;;;;12.00;39.76;102403.13;5010796;28;20044;-72
2022/03/08 02:36:22;;;;;;;3.70;1.70;;;;;;;11.88;39.88;102391.94;5014325;28;20463;-73
2022/03/08 02:38:49;;;;;;;3.33;1.50;;;;;;;11.84;40.01;102398.69;5012748;28;20026;-72
2022/03/08 02:41:15;;;;;;;3.92;1.65;;;;;;;11.73;40.73;102397.19;5028868;28;20022;-72
2022/03/08 02:43:42;;;;;;;2.53;1.20;;;;;;;11.61;40.88;102393.25;5022431;28;20026;-72
2022/03/08 02:46:08;;;;;;;3.33;1.60;;;;;;;11.58;41.01;102398.94;5010861;28;20040;-72
2022/03/08 02:48:34;;;;;;;2.88;1.25;;;;;;;11.37;41.85;102397.69;5009821;28;20037;-72
2022/03/08 02:51:01;;;;;;;5.68;1.20;;;;;;;11.35;42.05;102407.75;5011917;28;20034;-72
2022/03/08 02:53:27;;;;;;;5.47;1.48;;;;;;;11.27;42.41;102391.69;5012086;28;20026;-72
2022/03/08 02:55:53;;;;;;;4.07;1.52;;;;;;;11.27;42.36;102406.91;5010159;28;20025;-72
2022/03/08 02:58:19;;;;;;;3.00;1.30;;;;;;;11.17;42.82;102401.78;5004457;28;20061;-72
2022/03/08 03:00:46;;;;;;;2.97;1.40;;;;;;;11.14;42.56;102403.97;4999910;28;20040;-72
2022/03/08 03:03:12;;;;;;;3.10;1.42;;;;;;;11.07;42.44;102406.50;5007696;28;20038;-72
2022/03/08 03:05:38;;;;;;;3.05;1.15;;;;;;;10.96;42.56;102407.69;5025009;28;20038;-74
2022/03/08 03:08:26;;;;;;;1.60;0.95;;;;;;;10.96;42.13;102404.16;5006262;28;20026;-74
2022/03/08 03:10:52;;;;;;;2.90;1.20;;;;;;;10.88;42.35;102406.84;4931763;29;20040;-74
2022/03/08 03:13:18;;;;;;;3.17;1.25;;;;;;;10.78;42.43;102402.53;4930742;29;20498;-73
2022/03/08 03:15:44;;;;;;;3.83;1.40;;;;;;;10.71;42.94;102401.50;4915973;29;20050;-74
2022/03/08 03:18:11;;;;;;;2.95;1.27;;;;;;;10.70;42.59;102410.53;4935179;29;20090;-74
2022/03/08 03:20:37;;;;;;;2.33;1.48;;;;;;;10.61;42.37;102411.56;4936786;29;20463;-74
2022/03/08 03:23:04;;;;;;;8.10;1.50;;;;;;;10.60;42.26;102407.19;4933354;29;20049;-74
2022/03/08 03:25:30;;;;;;;3.15;1.30;;;;;;;10.56;42.89;102406.72;4934808;29;20042;-78
2022/03/08 03:27:56;;;;;;;1.67;1.00;;;;;;;10.50;42.38;102404.72;4934303;29;20459;-77
2022/03/08 03:30:22;;;;;;;2.75;1.48;;;;;;;10.44;42.71;102412.59;4934287;29;20031;-76
2022/03/08 03:32:48;;;;;;;3.33;1.60;;;;;;;10.37;42.63;102403.53;4928302;29;20514;-75
2022/03/08 03:35:16;;;;;;;3.45;1.30;;;;;;;10.40;42.95;102408.56;4931380;29;20533;-78
2022/03/08 03:37:43;;;;;;;4.70;1.35;;;;;;;10.38;43.19;102405.19;4931934;29;20059;-79
2022/03/08 03:40:10;;;;;;;2.85;1.13;;;;;;;10.32;43.17;102412.03;4936144;29;20066;-79
2022/03/08 03:42:37;;;;;;;3.15;1.50;;;;;;;10.24;43.39;102410.22;4922757;29;20103;-79
2022/03/08 03:45:05;;;;;;;3.08;1.05;;;;;;;10.16;43.46;102406.63;4938189;29;20553;-71
2022/03/08 03:47:32;;;;;;;3.95;1.42;;;;;;;9.99;43.97;102411.97;4959418;28;20038;-71
2022/03/08 03:49:58;;;;;;;3.58;1.42;;;;;;;10.03;43.58;102413.31;5013613;28;20030;-71
2022/03/08 03:52:24;;;;;;;2.55;1.30;;;;;;;10.00;43.94;102410.16;5016272;28;20062;-71
2022/03/08 03:54:50;;;;;;;2.80;1.30;;;;;;;10.02;43.58;102414.31;5016689;28;20037;-71
2022/03/08 03:57:17;;;;;;;3.30;1.25;;;;;;;10.05;43.33;102416.69;5031827;28;20025;-71
2022/03/08 03:59:43;;;;;;;3.10;0.93;;;;;;;9.97;43.02;102411.28;5015272;28;20043;-71
2022/03/08 04:02:09;;;;;;;2.10;1.13;;;;;;;9.98;42.71;102412.13;5020346;28;20394;-71
2022/03/08 04:04:35;;;;;;;3.90;0.80;;;;;;;9.95;42.90;102415.97;5017272;28;20032;-71
2022/03/08 04:07:02;;;;;;;2.72;1.20;;;;;;;9.90;43.05;102406.78;5035075;28;20087;-71
2022/03/08 04:09:28;;;;;;;2.38;1.10;;;;;;;9.90;42.68;102402.25;5025598;28;20033;-71
2022/03/08 04:11:54;;;;;;;2.70;1.10;;;;;;;9.82;42.64;102409.41;5011928;28;20022;-72
2022/03/08 04:14:20;;;;;;;4.40;1.10;;;;;;;9.83;43.02;102408.41;5015812;28;20026;-71
2022/03/08 04:16:47;;;;;;;3.10;1.10;;;;;;;9.78;43.39;102407.06;5022655;28;20109;-72
2022/03/08 04:19:13;;;;;;;3.22;1.20;;;;;;;9.75;43.23;102404.72;5014176;28;20021;-71
2022/03/08 04:21:39;;;;;;;1.73;0.80;;;;;;;9.73;43.35;102406.72;5016509;28;20101;-71
2022/03/08 04:24:06;;;;;;;2.65;1.10;;;;;;;9.71;43.27;102400.69;5032051;28;20399;-71
2022/03/08 04:26:32;;;;;;;2.75;1.23;;;;;;;9.68;43.07;102398.34;5015393;28;20057;-72
2022/03/08 04:28:58;;;;;;;1.85;0.85;;;;;;;9.64;43.17;102402.34;5029952;28;20048;-72
2022/03/08 04:31:24;;;;;;;1.20;0.98;;;;;;;9.65;42.80;102403.16;5015318;28;20415;-71
2022/03/08 04:33:50;;;;;;;3.08;1.27;;;;;;;9.55;42.93;102403.31;5019811;28;20112;-71
2022/03/08 04:36:17;;;;;;;2.22;1.00;;;;;;;9.54;42.94;102401.63;5013369;28;20088;-71
2022/03/08 04:38:43;;;;;;;2.28;0.77;;;;;;;9.50;42.83;102403.78;5008769;28;20029;-72
2022/03/08 04:41:09;;;;;;;2.33;1.00;;;;;;;9.47;42.68;102398.75;5030772;28;20037;-72
2022/03/08 04:43:35;;;;;;;2.88;1.02;;;;;;;9.44;42.71;102399.09;5014556;28;20034;-71
2022/03/08 04:46:02;;;;;;;2.30;0.98;;;;;;;9.45;42.89;102402.59;5015028;28;20084;-71
2022/03/08 04:48:28;;;;;;;3.85;1.00;;;;;;;9.40;43.19;102404.91;5014791;28;20061;-71
2022/03/08 04:50:54;;;;;;;2.10;0.98;;;;;;;9.32;43.45;102400.34;5014844;28;20030;-71
2022/03/08 04:53:20;;;;;;;2.72;0.95;;;;;;;9.30;43.29;102405.03;5030672;28;20369;-71
2022/03/08 04:55:47;;;;;;;3.22;0.93;;;;;;;9.21;44.21;102406.81;5014938;28;20029;-71
2022/03/08 04:58:13;;;;;;;1.67;0.90;;;;;;;9.20;44.12;102404.31;5014280;28;20025;-71
2022/03/08 05:00:39;;;;;;;2.05;0.90;;;;;;;9.07;44.41;102402.06;5013759;28;20036;-71
2022/03/08 05:03:05;;;;;;;3.30;1.23;;;;;;;9.08;44.31;102400.22;5011740;28;20535;-70
2022/03/08 05:05:33;;;;;;;2.50;1.00;;;;;;;9.04;44.22;102404.19;5018560;28;20040;-71
2022/03/08 05:07:59;;;;;;;3.40;1.05;;;;;;;8.96;43.78;102402.34;5029795;28;20057;-71
2022/03/08 05:10:26;;;;;;;3.40;1.42;;;;;;;8.93;43.79;102400.78;5028032;28;20037;-71
2022/03/08 05:12:53;;;;;;;1.15;0.80;;;;;;;8.95;43.86;102400.66;5012507;28;20080;-71
2022/03/08 05:15:19;;;;;;;3.50;1.33;;;;;;;8.90;43.63;102397.63;5007536;28;20029;-71
2022/03/08 05:17:45;;;;;;;1.75;1.20;;;;;;;8.88;43.83;102395.13;5014938;28;20120;-71
2022/03/08 05:20:11;;;;;;;2.83;1.08;;;;;;;8.88;43.40;102396.91;5013793;28;20037;-72
2022/03/08 05:22:38;;;;;;;2.83;1.05;;;;;;;8.84;43.77;102400.91;5015279;28;20022;-71
2022/03/08 05:25:04;;;;;;;1.23;1.10;;;;;;;8.82;43.33;102394.88;5014958;28;20033;-71
2022/03/08 05:27:31;;;;;;;2.15;1.00;;;;;;;8.76;43.97;102401.69;5012583;28;20101;-71
2022/03/08 05:29:57;;;;;;;2.25;0.90;;;;;;;8.66;44.66;102407.13;5013087;28;20436;-71
2022/03/08 05:32:23;;;;;;;2.08;1.33;;;;;;;8.63;44.74;102396.75;5012157;28;20057;-71
2022/03/08 05:34:49;;;;;;;2.55;1.17;;;;;;;8.50;45.17;102406.16;5026977;28;20427;-71
2022/03/08 05:37:15;;;;;;;1.52;1.20;;;;;;;8.49;44.97;102396.47;5014947;28;20034;-71
2022/03/08 05:39:42;;;;;;;2.20;1.00;;;;;;;8.48;45.38;102403.63;5030375;28;20458;-71
2022/03/08 05:42:08;;;;;;;2.13;0.95;;;;;;;8.40;45.67;102401.75;5015018;28;20030;-71
2022/03/08 05:44:35;;;;;;;2.30;1.00;;;;;;;8.31;45.59;102402.63;5009032;28;20033;-70
2022/03/08 05:47:01;;;;;;;1.50;1.05;;;;;;;8.24;46.02;102408.72;5013999;28;20041;-70
2022/03/08 05:49:27;;;;;;;2.65;1.00;;;;;;;8.17;46.36;102404.00;5012288;28;20022;-73
2022/03/08 05:51:54;;;;;;;1.95;1.10;;;;;;;8.11;46.55;102396.63;5012468;28;20096;-75
2022/03/08 05:54:20;;;;;;;3.33;0.88;;;;;;;7.98;47.40;102401.47;5014109;28;20046;-76
2022/03/08 05:56:46;;;;;;;3.03;0.88;;;;;;;7.93;47.03;102409.06;5013848;28;20026;-72
2022/03/08 05:59:12;;;;;;;2.08;0.70;;;;;;;7.86;47.34;102402.66;5011350;28;20355;-76
2022/03/08 06:01:39;;;;;;;3.53;1.02;;;;;;;7.77;47.48;102401.72;5014315;28;20053;-73
2022/03/08 06:04:06;;;;;;;3.65;1.00;;;;;;;7.73;47.71;102391.53;5018898;28;20025;-75
2022/03/08 06:06:32;;;;;;;2.40;1.05;;;;;;;7.63;48.03;102396.91;5013396;28;20022;-72
2022/03/08 06:08:59;;;;;;;2.75;1.10;;;;;;;7.57;47.92;102393.00;5020545;28;20025;-72
2022/03/08 06:11:25;;;;;;;3.47;1.00;;;;;;;7.57;47.95;102392.19;5006304;28;20022;-73
2022/03/08 06:13:52;;;;;;;2.47;1.10;;;;;;;7.45;48.52;102391.53;5032244;28;20052;-71
2022/03/08 06:16:18;;;;;;;1.33;0.85;;;;;;;7.43;48.71;102395.31;5010885;28;20053;-72
2022/03/08 06:18:44;;;;;;;1.20;0.75;;;;;;;7.39;49.03;102394.78;5000934;28;20026;-72
2022/03/08 06:21:10;;;;;;;2.58;1.08;;;;;;;7.31;49.21;102389.34;5027647;28;20705;-72
2022/03/08 06:23:37;;;;;;;1.27;0.90;;;;;;;7.33;48.97;102390.91;5008538;28;20034;-72
2022/03/08 06:26:03;;;;;;;1.15;0.98;;;;;;;7.29;49.26;102394.00;5014508;28;20370;-70
2022/03/08 06:28:29;;;;;;;2.33;0.90;;;;;;;7.25;49.69;102385.44;5019674;28;20038;-72
2022/03/08 06:30:55;;;;;;;2.25;1.08;;;;;;;7.26;50.00;102384.44;5015432;28;20036;-72
2022/03/08 06:33:22;;;;;;;3.03;0.90;;;;;;;7.18;49.32;102386.19;5008643;28;20041;-72
2022/03/08 06:35:48;;;;;;;2.83;1.00;;;;;;;7.15;49.48;102384.63;5014191;28;20018;-72
2022/03/08 06:38:14;;;;;;;4.22;1.50;;;;;;;7.15;49.29;102374.81;5013820;28;20049;-71
2022/03/08 06:40:40;;;;;;;1.67;0.93;;;;;;;7.10;49.20;102382.41;5012570;28;20022;-71
2022/03/08 06:43:06;;;;;;;2.97;0.77;;;;;;;7.14;49.13;102380.31;5004731;28;20041;-72
2022/03/08 06:45:33;;;;;;;1.48;0.70;;;;;;;7.16;48.89;102378.31;5028727;28;20026;-71
2022/03/08 06:47:59;;;;;;;3.80;1.15;;;;;;;7.08;49.29;102376.41;5026193;28;20030;-71
2022/03/08 06:50:25;;;;;;;4.90;1.00;;;;;;;7.15;49.04;102369.50;5020505;28;20030;-72
2022/03/08 06:52:51;;;;;;;3.60;1.10;;;;;;;7.09;48.19;102362.09;5022200;28;20033;-71
2022/03/08 06:55:17;;;;;;;0.95;0.80;;;;;;;7.18;47.88;102364.88;5005546;28;20044;-71
2022/03/08 06:57:43;;;;;;;2.13;1.05;;;;;;;7.23;48.05;102366.13;5010909;28;20034;-71
2022/03/08 07:00:11;;;;;;;1.50;0.93;;;;;;;7.18;48.37;102362.22;5010418;28;20092;-71
2022/03/08 07:02:37;;;;;;;1.45;0.80;;;;;;;7.18;48.67;102365.72;5009827;28;20029;-71
2022/03/08 07:05:04;;;;;;;2.15;0.90;;;;;;;7.15;49.04;102363.34;5022997;28;20030;-72
2022/03/08 07:07:30;;;;;;;1.73;0.93;;;;;;;7.12;48.62;102364.47;5011969;28;20030;-70
2022/03/08 07:09:57;;;;;;;1.20;0.90;;;;;;;7.09;48.98;102358.59;5003415;28;20533;-70
2022/03/08 07:12:23;;;;;;;3.03;0.82;;;;;;;7.01;49.03;102362.00;5012793;28;20026;-70
2022/03/08 07:14:50;;;;;;;2.75;0.85;;;;;;;7.02;48.54;102354.84;5015664;28;20120;-70
2022/03/08 07:17:16;;;;;;;2.50;0.80;;;;;;;7.01;48.55;102347.84;5018702;28;20022;-70
2022/03/08 07:19:42;;;;;;;1.70;0.80;;;;;;;7.07;47.90;102352.59;5013037;28;20034;-69
2022/03/08 07:22:08;;;;;;;2.90;0.95;;;;;;;7.05;48.06;102347.41;5033932;28;20459;-70
2022/03/08 07:24:34;;;;;;;2.60;0.85;;;;;;;7.10;47.43;102352.28;5017105;28;20044;-69
2022/03/08 07:27:00;;;;;;;1.00;0.70;;;;;;;7.05;47.84;102349.22;5015876;28;20022;-69
2022/03/08 07:29:27;;;;;;;1.48;0.80;;;;;;;7.07;47.75;102348.09;5012303;28;20094;-70
2022/03/08 07:31:53;;;;;;;3.20;0.85;;;;;;;7.07;47.40;102349.94;5022094;28;20030;-70
2022/03/08 07:34:19;;;;;;;2.05;0.70;;;;;;;7.14;47.10;102343.84;5024493;28;20030;-69
2022/03/08 07:36:45;;;;;;;0.88;0.80;;;;;;;7.12;47.22;102343.19;5014868;28;20364;-69
2022/03/08 07:39:11;;;;;;;1.45;0.70;;;;;;;7.10;47.57;102339.81;5020589;28;20471;-69
2022/03/08 07:41:38;;;;;;;3.13;0.95;;;;;;;7.09;47.72;102348.78;5015425;28;20530;-69
2022/03/08 07:44:04;;;;;;;2.90;0.70;;;;;;;7.09;48.77;102350.59;5005746;28;20030;-70
2022/03/08 07:46:31;;;;;;;1.95;0.80;;;;;;;7.00;49.01;102351.50;5015326;28;20105;-69
2022/03/08 07:48:57;;;;;;;1.27;0.63;;;;;;;6.98;48.64;102342.81;5016933;28;20025;-69
2022/03/08 07:51:25;;;;;;;1.75;1.00;;;;;;;6.93;48.88;102356.53;5024313;28;20064;-72
2022/03/08 07:53:51;;;;;;;0.95;0.85;;;;;;;6.90;48.55;102348.03;5010613;28;20382;-70
2022/03/08 07:56:17;;;;;;;1.38;0.70;;;;;;;6.95;48.16;102351.94;5009075;28;20026;-71
2022/03/08 07:58:46;;;;;;;2.22;0.80;;;;;;;6.96;48.32;102350.09;5015322;28;20025;-70
2022/03/08 08:01:13;;;;;;;0.85;0.70;;;;;;;6.93;48.36;102339.72;5028534;28;20068;-71
2022/03/08 08:03:39;;;;;;;1.13;0.70;;;;;;;6.94;48.40;102336.09;5012002;28;20085;-72
2022/03/08 08:06:05;;;;;;;0.70;0.70;;;;;;;6.87;48.82;102343.81;5015098;28;20028;-71
2022/03/08 08:08:32;;;;;;;2.25;1.17;;;;;;;6.89;48.59;102333.88;5004702;28;20034;-71
2022/03/08 08:10:58;;;;;;;1.30;0.90;;;;;;;6.85;49.38;102338.66;5014080;28;20100;-71
2022/03/08 08:13:24;;;;;;;2.78;1.00;;;;;;;6.87;48.71;102339.31;5013453;28;20054;-70
2022/03/08 08:15:50;;;;;;;2.55;0.73;;;;;;;6.83;49.16;102323.81;5015782;28;20044;-70
2022/03/08 08:18:16;;;;;;;1.02;0.70;;;;;;;6.80;49.33;102334.75;5020328;28;20142;-71
2022/03/08 08:20:42;;;;;;;1.00;0.80;;;;;;;6.79;49.96;102331.25;5013726;28;20044;-70
2022/03/08 08:23:09;;;;;;;1.85;1.05;;;;;;;6.74;49.70;102333.50;5033013;28;20071;-70
2022/03/08 08:25:35;;;;;;;1.30;0.80;;;;;;;6.65;50.30;102328.19;5024776;28;20515;-77
2022/03/08 08:28:01;;;;;;;1.60;0.70;;;;;;;6.70;49.90;102325.94;5021737;28;20025;-77
2022/03/08 08:30:27;;;;;;;3.08;1.33;;;;;;;6.64;50.69;102335.34;5011301;28;20022;-77
2022/03/08 08:32:53;;;;;;;1.00;0.90;;;;;;;6.55;50.72;102328.19;5026041;28;20128;-77
2022/03/08 08:35:20;;;;;;;1.00;0.70;;;;;;;6.51;50.34;102327.66;5003357;28;20467;-76
2022/03/08 08:37:46;;;;;;;1.75;0.82;;;;;;;6.55;50.35;102329.06;5014527;28;20034;-76
2022/03/08 08:40:12;;;;;;;1.48;0.90;;;;;;;6.53;50.28;102322.19;5015706;28;20298;-76
2022/03/08 08:42:39;;;;;;;1.40;0.88;;;;;;;6.53;50.31;102323.03;5012201;28;20107;-76
2022/03/08 08:45:06;;;;;;;1.25;0.90;;;;;;;6.51;50.32;102322.34;5012297;28;20033;-76
2022/03/08 08:47:32;;;;;;;0.98;0.80;;;;;;;6.53;50.23;102323.03;5012715;28;20065;-77
2022/03/08 08:49:59;;;;;;;2.15;0.95;;;;;;;6.47;50.52;102320.94;5014967;28;20033;-76
2022/03/08 08:52:25;;;;;;;2.58;1.00;;;;;;;6.44;50.10;102321.25;5029994;28;20064;-75
2022/03/08 08:54:51;;;;;;;4.70;1.17;;;;;;;6.44;50.34;102317.72;5012504;28;20060;-76
2022/03/08 08:57:17;;;;;;;1.60;0.80;;;;;;;6.38;51.04;102318.28;5010800;28;20030;-76
2022/03/08 08:59:44;;;;;;;3.17;0.85;;;;;;;6.38;50.83;102321.78;5014159;28;20029;-77
2022/03/08 09:02:10;;;;;;;2.45;1.10;;;;;;;6.34;51.23;102320.41;5015536;28;20083;-76
2022/03/08 09:04:36;;;;;;;1.52;1.08;;;;;;;6.26;51.36;102325.59;5002632;28;20472;-77
2022/03/08 09:07:03;;;;;;;1.42;0.82;;;;;;;6.24;51.48;102323.09;5001304;28;20037;-70
2022/03/08 09:09:29;;;;;;;2.10;0.68;;;;;;;6.25;51.72;102330.06;5014974;28;20022;-69
2022/03/08 09:11:55;;;;;;;2.70;0.90;;;;;;;6.20;51.83;102326.16;5016594;28;20352;-69
2022/03/08 09:14:21;;;;;;;1.95;0.80;;;;;;;6.19;51.54;102324.50;5034833;28;20029;-70
2022/03/08 09:16:47;;;;;;;1.42;0.93;;;;;;;6.16;51.89;102322.09;5017688;28;20109;-69
2022/03/08 09:19:13;;;;;;;1.48;0.82;;;;;;;6.17;51.59;102321.16;5014830;28;20022;-69
2022/03/08 09:21:40;;;;;;;1.48;0.80;;;;;;;6.15;51.95;102315.09;5014840;28;20021;-70
2022/03/08 09:24:06;;;;;;;1.52;0.90;;;;;;;6.17;51.50;102308.69;5014810;28;20029;-71
2022/03/08 09:26:33;;;;;;;1.80;0.98;;;;;;;6.06;52.50;102314.97;5014651;28;20451;-70
2022/03/08 09:28:59;;;;;;;1.52;0.85;;;;;;;6.02;52.17;102308.25;5017767;28;20100;-71
2022/03/08 09:31:25;;;;;;;2.45;0.70;;;;;;;6.06;52.21;102298.19;5030462;28;20051;-71
2022/03/08 09:33:51;;;;;;;1.63;0.77;;;;;;;5.95;53.05;102301.84;5014403;28;20018;-71
2022/03/08 09:36:17;;;;;;;1.83;0.90;;;;;;;5.98;52.94;102300.69;5012402;28;20026;-71
2022/03/08 09:38:44;;;;;;;1.20;0.90;;;;;;;5.92;52.67;102310.06;5013573;28;20064;-71
2022/03/08 09:41:11;;;;;;;2.38;1.15;;;;;;;5.97;53.28;102307.84;5014525;28;20383;-70
2022/03/08 09:43:38;;;;;;;1.73;0.82;;;;;;;5.92;53.18;102318.03;5014849;28;20444;-71
2022/03/08 09:46:05;;;;;;;2.75;0.70;;;;;;;5.90;53.08;102314.66;5008580;28;20356;-71
2022/03/08 09:48:33;;;;;;;2.03;1.08;;;;;;;5.91;52.99;102305.75;5029438;28;20124;-69
2022/03/08 09:51:01;;;;;;;0.95;0.73;;;;;;;5.94;52.75;102299.28;5014101;28;20072;-71
2022/03/08 09:53:32;;;;;;;1.55;0.85;;;;;;;5.92;52.58;102302.09;5017217;28;20025;-70
2022/03/08 09:56:04;;;;;;;2.28;0.82;;;;;;;5.95;52.51;102301.00;5016233;28;20087;-70
2022/03/08 09:58:32;;;;;;;1.40;0.80;;;;;;;5.94;52.54;102299.28;5024188;28;20033;-70
2022/03/08 10:01:00;;;;;;;1.90;1.05;;;;;;;5.96;52.25;102282.25;5006002;28;20034;-69
2022/03/08 10:03:40;;;;;;;2.72;0.80;;;;;;;5.95;52.66;102291.22;5022763;28;20072;-70
2022/03/08 10:06:08;;;;;;;1.42;0.90;;;;;;;5.96;52.47;102282.25;5010105;28;20025;-69
2022/03/08 10:08:34;;;;;;;1.27;0.73;;;;;;;6.01;51.49;102279.16;5679592;23;20136;-75
2022/03/08 10:11:03;;;;;;;0.98;0.80;;;;;;;6.02;52.09;102273.72;5009531;28;20041;-76
2022/03/08 10:13:35;;;;;;;1.33;0.82;;;;;;;5.96;52.38;102278.75;4994602;28;20116;-76
2022/03/08 10:16:48;;;;;;;1.67;0.90;;;;;;;5.99;52.65;102283.78;5028997;28;20048;-76
2022/03/08 10:19:15;;;;;;;2.10;1.30;;;;;;;5.95;53.38;102283.22;5013727;28;20472;-76
2022/03/08 10:21:43;;;;;;;2.38;1.15;;;;;;;5.95;53.04;102282.41;5014796;28;20115;-76
2022/03/08 10:24:16;;;;;;;1.23;0.73;;;;;;;5.84;53.05;102283.34;5013493;28;20029;-76
2022/03/08 10:26:50;;;;;;;0.95;0.75;;;;;;;5.79;53.30;102282.91;5012462;28;20045;-76
2022/03/08 10:29:28;;;;;;;2.60;0.75;;;;;;;5.75;53.13;102278.84;5003320;28;20041;-76
2022/03/08 10:32:16;;;;;;;2.25;0.90;;;;;;;5.78;52.63;102268.78;5009986;28;20033;-76
2022/03/08 10:34:44;;;;;;;2.90;0.90;;;;;;;5.76;52.61;102262.75;5016290;28;20026;-76
2022/03/08 10:37:19;;;;;;;1.38;0.80;;;;;;;5.76;52.45;102265.41;5037051;28;20021;-76
2022/03/08 10:39:56;;;;;;;1.05;0.80;;;;;;;5.79;52.18;102267.81;5021749;28;20033;-76
2022/03/08 10:42:27;;;;;;;1.35;0.65;;;;;;;5.80;52.09;102271.31;5005454;28;20084;-78
2022/03/08 10:45:12;;;;;;;2.83;0.90;;;;;;;5.87;52.33;102266.25;5004582;28;20482;-77
2022/03/08 10:47:53;;;;;;;1.52;0.88;;;;;;;5.85;52.21;102261.09;5016395;28;20056;-77
2022/03/08 10:50:23;;;;;;;2.00;0.80;;;;;;;5.80;52.84;102260.69;5021344;28;20026;-70
2022/03/08 10:52:54;;;;;;;1.05;0.70;;;;;;;5.76;52.73;102262.75;5021723;28;20034;-71
2022/03/08 10:55:31;;;;;;;1.42;0.85;;;;;;;5.75;53.09;102254.94;5014552;28;20084;-71
2022/03/08 10:58:00;;;;;;;1.67;0.80;;;;;;;5.76;53.02;102262.75;5018262;28;20028;-70
2022/03/08 11:00:30;;;;;;;1.73;0.80;;;;;;;5.75;53.03;102273.53;5017911;28;20033;-70
2022/03/08 11:03:13;;;;;;;1.45;0.70;;;;;;;5.65;54.06;102272.69;5015220;28;20033;-71
2022/03/08 11:05:45;;;;;;;1.85;0.65;;;;;;;5.62;54.88;102270.31;5032427;28;20034;-71
2022/03/08 11:08:12;;;;;;;1.80;0.80;;;;;;;5.46;55.24;102265.56;5016813;28;20116;-77
2022/03/08 11:10:40;;;;;;;0.73;0.52;;;;;;;5.44;54.44;102259.50;5015966;28;20033;-77
2022/03/08 11:13:07;;;;;;;1.80;0.80;;;;;;;5.36;55.32;102267.34;5019263;28;20034;-77
2022/03/08 11:15:36;;;;;;;2.30;0.77;;;;;;;5.34;55.39;102267.50;5017248;28;20040;-77
2022/03/08 11:18:05;;;;;;;1.25;0.70;;;;;;;5.29;55.56;102267.06;5003395;28;20412;-77
2022/03/08 11:20:31;;;;;;;2.42;0.70;;;;;;;5.22;56.67;102263.28;5015761;28;20026;-77
2022/03/08 11:22:59;;;;;;;1.90;0.73;;;;;;;5.13;57.76;102259.59;5013787;28;20040;-77
2022/03/08 11:25:37;;;;;;;2.85;0.98;;;;;;;4.98;57.80;102264.44;5016479;28;20033;-76
2022/03/08 11:28:04;;;;;;;1.40;0.70;;;;;;;4.92;58.09;102266.78;5009804;28;20451;-69
2022/03/08 11:30:40;;;;;;;1.05;0.70;;;;;;;4.90;58.00;102272.25;5016104;28;20360;-69
2022/03/08 11:33:17;;;;;;;2.25;0.77;;;;;;;4.85;58.18;102263.84;5008638;28;20037;-69